Flight Track Log - Related Links

Times and Time Zones

All times are in EST time to prevent confusion due to time zone crossing. See the KAL227 flight status page for this flight to view local times or setup timezone preferences in your user account.

Time Position Orientation Groundspeed Altitude Reporting Facility
EST Latitude Longitude Course Direction KTS MPH feet Rate Location/Type
Mon 08:49:00 AM 37.7723 126.9095 78° East  Level Estimated
Mon 08:50:00 AM 37.6920 127.0372 128° Southeast  Level FlightAware Approximate
Mon 08:51:00 AM 37.7962 127.1332 74° East  Level Estimated
Mon 08:52:00 AM 37.9004 127.2296 78° East  Level Estimated
Mon 08:53:00 AM 38.0044 127.3262 79° East  Level Estimated
Mon 08:54:00 AM 38.1084 127.4231 77° East  Level Estimated
Mon 08:55:00 AM 38.0302 127.5534 127° Southeast  Level FlightAware Approximate
Mon 08:56:00 AM 38.1341 127.6504 76° East  Level Estimated
Mon 08:57:00 AM 38.2380 127.7477 81° East  Level Estimated
Mon 08:58:00 AM 38.3417 127.8453 76° East  Level Estimated
Mon 08:59:00 AM 38.4454 127.9432 104° East  Level Estimated
Mon 09:00:00 AM 38.5490 128.0414 99° East  Level Estimated
Mon 09:01:00 AM 38.4690 128.1706 128° Southeast  Level FlightAware Approximate
Mon 09:02:00 AM 38.3888 128.2995 128° Southeast  Level FlightAware Approximate
Mon 09:03:00 AM 38.3084 128.4282 128° Southeast  Level FlightAware Approximate
Mon 09:04:00 AM 38.4120 128.5262 98° East  Level Estimated
Mon 09:05:00 AM 38.3583 128.6758 115° Southeast  Level FlightAware Approximate
Mon 09:06:00 AM 38.3045 128.8253 115° Southeast  Level FlightAware Approximate
Mon 09:07:00 AM 38.2505 128.9745 115° Southeast  Level FlightAware Approximate
Mon 09:08:00 AM 38.1963 129.1234 115° Southeast  Level FlightAware Approximate
Mon 09:09:00 AM 38.1419 129.2722 115° Southeast  Level FlightAware Approximate
Mon 09:10:00 AM 38.0873 129.4207 115° Southeast  Level FlightAware Approximate
Mon 09:11:00 AM 38.0325 129.5690 115° Southeast  Level FlightAware Approximate
Mon 09:12:00 AM 37.9775 129.7171 115° Southeast  Level FlightAware Approximate
Mon 09:13:00 AM 37.9224 129.8650 115° Southeast  Level FlightAware Approximate
Mon 09:14:00 AM 37.8671 130.0126 115° Southeast  Level FlightAware Approximate
Mon 09:15:00 AM 37.9706 130.1101 37° Northeast  Level Estimated
Mon 09:16:00 AM 37.9352 130.2674 106° East  Level FlightAware Approximate
Mon 09:17:00 AM 37.8996 130.4245 106° East  Level FlightAware Approximate
Mon 09:18:00 AM 38.0031 130.5222 90° East  Level Estimated
Mon 09:19:00 AM 37.9769 130.6825 102° East  Level FlightAware Approximate
Mon 09:20:00 AM 37.9505 130.8426 102° East  Level FlightAware Approximate
Mon 09:21:00 AM 37.9239 131.0026 102° East  Level FlightAware Approximate
Mon 09:22:00 AM 37.8971 131.1625 102° East  Level FlightAware Approximate
Mon 09:23:00 AM 37.8701 131.3223 102° East  Level FlightAware Approximate
Mon 09:24:00 AM 37.8428 131.4820 102° East  Level FlightAware Approximate
Mon 09:25:00 AM 37.9462 131.5799 86° East  Level Estimated
Mon 09:26:00 AM 37.9137 131.7381 105° East  Level FlightAware Approximate
Mon 09:27:00 AM 38.0169 131.8362 84° East  Level Estimated
Mon 09:28:00 AM 37.9891 131.9960 102° East  Level FlightAware Approximate
Mon 09:29:00 AM 37.9611 132.1558 103° East  Level FlightAware Approximate
Mon 09:30:00 AM 38.0642 132.2541 85° East  Level Estimated
Mon 09:31:00 AM 38.0626 132.4179 91° East  Level FlightAware Approximate
Mon 09:32:00 AM 38.0607 132.5817 91° East  Level FlightAware Approximate
Mon 09:33:00 AM 38.0586 132.7455 91° East  Level FlightAware Approximate
Mon 09:34:00 AM 38.0563 132.9093 91° East  Level FlightAware Approximate
Mon 09:35:00 AM 38.0537 133.0730 91° East  Level FlightAware Approximate
Mon 09:36:00 AM 38.0509 133.2368 91° East  Level FlightAware Approximate
Mon 09:37:00 AM 38.0479 133.4005 91° East  Level FlightAware Approximate
Mon 09:38:00 AM 38.0447 133.5643 91° East  Level FlightAware Approximate
Mon 09:39:00 AM 38.0412 133.7280 91° East  Level FlightAware Approximate
Mon 09:40:00 AM 38.0375 133.8917 92° East  Level FlightAware Approximate
Mon 09:41:00 AM 38.0336 134.0554 92° East  Level FlightAware Approximate
Mon 09:42:00 AM 38.0294 134.2191 92° East  Level FlightAware Approximate
Mon 09:43:00 AM 38.0251 134.3827 92° East  Level FlightAware Approximate
Mon 09:44:00 AM 38.0205 134.5463 92° East  Level FlightAware Approximate
Mon 09:45:00 AM 38.0156 134.7099 92° East  Level FlightAware Approximate
Mon 09:46:00 AM 38.0106 134.8735 92° East  Level FlightAware Approximate
Mon 09:47:00 AM 38.0053 135.0371 92° East  Level FlightAware Approximate
Mon 09:48:00 AM 37.9998 135.2006 92° East  Level FlightAware Approximate
Mon 09:49:00 AM 37.9940 135.3641 92° East  Level FlightAware Approximate
Mon 09:50:00 AM 37.9881 135.5276 93° East  Level FlightAware Approximate
Mon 09:51:00 AM 37.9819 135.6911 93° East  Level FlightAware Approximate
Mon 09:52:00 AM 37.9755 135.8545 93° East  Level FlightAware Approximate
Mon 09:53:00 AM 37.9688 136.0179 93° East  Level FlightAware Approximate
Mon 09:54:00 AM 38.0714 136.1172 87° East  Level Estimated
Mon 09:55:00 AM 38.0667 136.2809 92° East  Level FlightAware Approximate
Mon 09:56:00 AM 38.0618 136.4446 92° East  Level FlightAware Approximate
Mon 09:57:00 AM 38.0566 136.6083 92° East  Level FlightAware Approximate
Mon 09:58:00 AM 38.0513 136.7719 92° East  Level FlightAware Approximate
Mon 09:59:00 AM 38.0456 136.9356 92° East  Level FlightAware Approximate
Mon 10:00:00 AM 38.0398 137.0992 93° East  Level FlightAware Approximate
Mon 10:01:00 AM 38.0337 137.2628 93° East  Level FlightAware Approximate
Mon 10:02:00 AM 38.0275 137.4263 93° East  Level FlightAware Approximate
Mon 10:03:00 AM 38.0209 137.5899 93° East  Level FlightAware Approximate
Mon 10:04:00 AM 38.1233 137.6895 92° East  Level Estimated
Mon 10:05:00 AM 38.1096 137.8525 96° East  Level FlightAware Approximate
Mon 10:06:00 AM 38.0957 138.0155 96° East  Level FlightAware Approximate
Mon 10:07:00 AM 38.0816 138.1784 96° East  Level FlightAware Approximate
Mon 10:08:00 AM 38.1838 138.2783 91° East  Level Estimated
Mon 10:09:00 AM 38.1721 138.4417 95° East  Level FlightAware Approximate
Mon 10:10:00 AM 38.1600 138.6050 95° East  Level FlightAware Approximate
Mon 10:11:00 AM 38.1478 138.7683 95° East  Level FlightAware Approximate
Mon 10:12:00 AM 38.1353 138.9315 96° East  Level FlightAware Approximate
Mon 10:13:00 AM 38.1226 139.0947 96° East  Level FlightAware Approximate
Mon 10:14:00 AM 38.1096 139.2578 96° East  Level FlightAware Approximate
Mon 10:15:00 AM 38.0965 139.4209 96° East  Level FlightAware Approximate
Mon 10:16:00 AM 38.0831 139.5839 96° East  Level FlightAware Approximate
Mon 10:17:00 AM 38.0695 139.7468 96° East  Level FlightAware Approximate
Mon 10:18:00 AM 38.0557 139.9097 96° East  Level FlightAware Approximate
Mon 10:19:00 AM 38.0416 140.0725 96° East  Level FlightAware Approximate
Mon 10:20:00 AM 38.1437 140.1726 93° East  Level Estimated
Mon 10:21:00 AM 38.1294 140.3356 96° East  Level FlightAware Approximate
Mon 10:22:00 AM 38.1147 140.4985 96° East  Level FlightAware Approximate
Mon 10:23:00 AM 38.0999 140.6613 97° East  Level FlightAware Approximate
Mon 10:24:00 AM 38.0848 140.8241 97° East  Level FlightAware Approximate
Mon 10:25:00 AM 38.0695 140.9868 97° East  Level FlightAware Approximate
Mon 10:26:00 AM 38.0540 141.1494 97° East  Level FlightAware Approximate
Mon 10:27:00 AM 38.0383 141.3120 97° East  Level FlightAware Approximate
Mon 10:28:00 AM 38.0223 141.4744 97° East  Level FlightAware Approximate
Mon 10:29:00 AM 38.0061 141.6369 97° East  Level FlightAware Approximate
Mon 10:30:00 AM 37.9897 141.7992 97° East  Level FlightAware Approximate
Mon 10:31:00 AM 38.0918 141.8993 71° East  Level Estimated
Mon 10:32:00 AM 38.1044 142.0624 84° East  Level FlightAware Approximate
Mon 10:33:00 AM 38.1167 142.2256 84° East  Level FlightAware Approximate
Mon 10:34:00 AM 38.1288 142.3889 85° East  Level FlightAware Approximate
Mon 10:35:00 AM 38.1407 142.5521 85° East  Level FlightAware Approximate
Mon 10:36:00 AM 38.1524 142.7155 85° East  Level FlightAware Approximate
Mon 10:37:00 AM 38.1638 142.8789 85° East  Level FlightAware Approximate
Mon 10:38:00 AM 38.1750 143.0423 85° East  Level FlightAware Approximate
Mon 10:39:00 AM 38.1860 143.2058 85° East  Level FlightAware Approximate
Mon 10:40:00 AM 38.1967 143.3693 85° East  Level FlightAware Approximate
Mon 10:41:00 AM 38.2073 143.5329 85° East  Level FlightAware Approximate
Mon 10:42:00 AM 38.2176 143.6966 85° East  Level FlightAware Approximate
Mon 10:43:00 AM 38.2276 143.8602 85° East  Level FlightAware Approximate
Mon 10:44:00 AM 38.3294 143.9611 38° Northeast  Level Estimated
Mon 10:45:00 AM 38.4312 144.0623 43° Northeast  Level Estimated
Mon 10:46:00 AM 38.5084 144.1942 53° Northeast  Level FlightAware Approximate
Mon 10:47:00 AM 38.5856 144.3264 53° Northeast  Level FlightAware Approximate
Mon 10:48:00 AM 38.6626 144.4588 53° Northeast  Level FlightAware Approximate
Mon 10:49:00 AM 38.7394 144.5916 53° Northeast  Level FlightAware Approximate
Mon 10:50:00 AM 38.8161 144.7246 53° Northeast  Level FlightAware Approximate
Mon 10:51:00 AM 38.8926 144.8580 54° Northeast  Level FlightAware Approximate
Mon 10:52:00 AM 38.9690 144.9916 54° Northeast  Level FlightAware Approximate
Mon 10:53:00 AM 39.0452 145.1255 54° Northeast  Level FlightAware Approximate
Mon 10:54:00 AM 39.1213 145.2597 54° Northeast  Level FlightAware Approximate
Mon 10:55:00 AM 39.1972 145.3941 54° Northeast  Level FlightAware Approximate
Mon 10:56:00 AM 39.2729 145.5289 54° Northeast  Level FlightAware Approximate
Mon 10:57:00 AM 39.3485 145.6640 54° Northeast  Level FlightAware Approximate
Mon 10:58:00 AM 39.4240 145.7993 54° Northeast  Level FlightAware Approximate
Mon 10:59:00 AM 39.4993 145.9350 54° Northeast  Level FlightAware Approximate
Mon 11:00:00 AM 39.5744 146.0709 54° Northeast  Level FlightAware Approximate
Mon 11:01:00 AM 39.6494 146.2072 54° Northeast  Level FlightAware Approximate
Mon 11:02:00 AM 39.7242 146.3437 55° Northeast  Level FlightAware Approximate
Mon 11:03:00 AM 39.7989 146.4805 55° Northeast  Level FlightAware Approximate
Mon 11:04:00 AM 39.8733 146.6177 55° Northeast  Level FlightAware Approximate
Mon 11:05:00 AM 39.9477 146.7551 55° Northeast  Level FlightAware Approximate
Mon 11:06:00 AM 40.0218 146.8928 55° Northeast  Level FlightAware Approximate
Mon 11:07:00 AM 40.0959 147.0308 55° Northeast  Level FlightAware Approximate
Mon 11:08:00 AM 40.1697 147.1691 55° Northeast  Level FlightAware Approximate
Mon 11:09:00 AM 40.2434 147.3078 55° Northeast  Level FlightAware Approximate
Mon 11:10:00 AM 40.3169 147.4467 55° Northeast  Level FlightAware Approximate
Mon 11:11:00 AM 40.3902 147.5859 55° Northeast  Level FlightAware Approximate
Mon 11:12:00 AM 40.4634 147.7254 55° Northeast  Level FlightAware Approximate
Mon 11:13:00 AM 40.5364 147.8653 55° Northeast  Level FlightAware Approximate
Mon 11:14:00 AM 40.6361 147.9731 45° Northeast  Level Estimated
Mon 11:15:00 AM 40.7225 148.0994 48° Northeast  Level FlightAware Approximate
Mon 11:16:00 AM 40.8087 148.2260 48° Northeast  Level FlightAware Approximate
Mon 11:17:00 AM 40.8948 148.3529 48° Northeast  Level FlightAware Approximate
Mon 11:18:00 AM 40.9808 148.4802 48° Northeast  Level FlightAware Approximate
Mon 11:19:00 AM 41.0667 148.6078 48° Northeast  Level FlightAware Approximate
Mon 11:20:00 AM 41.1524 148.7357 48° Northeast  Level FlightAware Approximate
Mon 11:21:00 AM 41.2379 148.8640 48° Northeast  Level FlightAware Approximate
Mon 11:22:00 AM 41.3233 148.9926 48° Northeast  Level FlightAware Approximate
Mon 11:23:00 AM 41.4086 149.1216 49° Northeast  Level FlightAware Approximate
Mon 11:24:00 AM 41.4937 149.2509 49° Northeast  Level FlightAware Approximate
Mon 11:25:00 AM 41.5787 149.3805 49° Northeast  Level FlightAware Approximate
Mon 11:26:00 AM 41.6636 149.5104 49° Northeast  Level FlightAware Approximate
Mon 11:27:00 AM 41.7482 149.6407 49° Northeast  Level FlightAware Approximate
Mon 11:28:00 AM 41.8328 149.7714 49° Northeast  Level FlightAware Approximate
Mon 11:29:00 AM 41.9172 149.9024 49° Northeast  Level FlightAware Approximate
Mon 11:30:00 AM 42.0014 150.0337 49° Northeast  Level FlightAware Approximate
Mon 11:31:00 AM 42.0855 150.1654 49° Northeast  Level FlightAware Approximate
Mon 11:32:00 AM 42.1835 150.2785 47° Northeast  Level Estimated
Mon 11:33:00 AM 42.2715 150.4059 47° Northeast  Level FlightAware Approximate
Mon 11:34:00 AM 42.3593 150.5337 47° Northeast  Level FlightAware Approximate
Mon 11:35:00 AM 42.4470 150.6618 47° Northeast  Level FlightAware Approximate
Mon 11:36:00 AM 42.5345 150.7903 47° Northeast  Level FlightAware Approximate
Mon 11:37:00 AM 42.6219 150.9191 47° Northeast  Level FlightAware Approximate
Mon 11:38:00 AM 42.7091 151.0484 47° Northeast  Level FlightAware Approximate
Mon 11:39:00 AM 42.7962 151.1779 47° Northeast  Level FlightAware Approximate
Mon 11:40:00 AM 42.8831 151.3079 48° Northeast  Level FlightAware Approximate
Mon 11:41:00 AM 42.9699 151.4382 48° Northeast  Level FlightAware Approximate
Mon 11:42:00 AM 43.0566 151.5688 48° Northeast  Level FlightAware Approximate
Mon 11:43:00 AM 43.1431 151.6999 48° Northeast  Level FlightAware Approximate
Mon 11:44:00 AM 43.2294 151.8313 48° Northeast  Level FlightAware Approximate
Mon 11:45:00 AM 43.3156 151.9631 48° Northeast  Level FlightAware Approximate
Mon 11:46:00 AM 43.4017 152.0952 48° Northeast  Level FlightAware Approximate
Mon 11:47:00 AM 43.4876 152.2278 48° Northeast  Level FlightAware Approximate
Mon 11:48:00 AM 43.5733 152.3607 48° Northeast  Level FlightAware Approximate
Mon 11:49:00 AM 43.6589 152.4940 48° Northeast  Level FlightAware Approximate
Mon 11:50:00 AM 43.7443 152.6276 48° Northeast  Level FlightAware Approximate
Mon 11:51:00 AM 43.8296 152.7617 49° Northeast  Level FlightAware Approximate
Mon 11:52:00 AM 43.9147 152.8961 49° Northeast  Level FlightAware Approximate
Mon 11:53:00 AM 43.9997 153.0309 49° Northeast  Level FlightAware Approximate
Mon 11:54:00 AM 44.0845 153.1661 49° Northeast  Level FlightAware Approximate
Mon 11:55:00 AM 44.1691 153.3017 49° Northeast  Level FlightAware Approximate
Mon 11:56:00 AM 44.2646 153.4228 49° Northeast  Level Estimated
Mon 11:57:00 AM 44.3497 153.5582 49° Northeast  Level FlightAware Approximate
Mon 11:58:00 AM 44.4346 153.6941 49° Northeast  Level FlightAware Approximate
Mon 11:59:00 AM 44.5194 153.8303 49° Northeast  Level FlightAware Approximate
Mon 12:00:00 PM 44.6040 153.9669 49° Northeast  Level FlightAware Approximate
Mon 12:01:00 PM 44.6884 154.1040 49° Northeast  Level FlightAware Approximate
Mon 12:02:00 PM 44.7727 154.2414 49° Northeast  Level FlightAware Approximate
Mon 12:03:00 PM 44.8569 154.3792 49° Northeast  Level FlightAware Approximate
Mon 12:04:00 PM 44.9408 154.5175 49° Northeast  Level FlightAware Approximate
Mon 12:05:00 PM 45.0246 154.6561 49° Northeast  Level FlightAware Approximate
Mon 12:06:00 PM 45.1082 154.7952 50° Northeast  Level FlightAware Approximate
Mon 12:07:00 PM 45.1917 154.9346 50° Northeast  Level FlightAware Approximate
Mon 12:08:00 PM 45.2749 155.0745 50° Northeast  Level FlightAware Approximate
Mon 12:09:00 PM 45.3581 155.2147 50° Northeast  Level FlightAware Approximate
Mon 12:10:00 PM 45.4410 155.3554 50° Northeast  Level FlightAware Approximate
Mon 12:11:00 PM 45.5238 155.4965 50° Northeast  Level FlightAware Approximate
Mon 12:12:00 PM 45.6063 155.6380 50° Northeast  Level FlightAware Approximate
Mon 12:13:00 PM 45.6888 155.7800 50° Northeast  Level FlightAware Approximate
Mon 12:13:06 PM 48.2833 160.6833 52° Northeast 548 631 33,000  Level Anchorage Center
Mon 12:50:04 PM 51.5333 168.4667 59° Northeast 540 621 35,000  Climbing Anchorage Center
Mon 12:51:00 PM 51.8162 168.6237 58° Northeast 548 631 33,000  Descending FlightAware Transoceanic
Mon 12:51:04 PM 51.6000 168.6500 60° Northeast 540 621 35,000  Climbing Anchorage Center
Mon 12:52:00 PM 51.8952 168.8323 59° Northeast 548 631 33,000  Descending FlightAware Transoceanic
Mon 12:52:04 PM 51.6833 168.8667 58° Northeast 540 621 35,000  Climbing Anchorage Center
Mon 12:53:00 PM 51.9740 169.0416 59° Northeast 548 631 33,000  Descending FlightAware Transoceanic
Mon 12:53:04 PM 51.7500 169.0500 60° Northeast 540 621 35,000  Climbing Anchorage Center
Mon 12:54:00 PM 52.0523 169.2516 59° Northeast 548 631 33,000  Descending FlightAware Transoceanic
Mon 12:54:04 PM 51.8333 169.2833 60° Northeast 540 621 35,000  Climbing Anchorage Center
Mon 12:55:00 PM 52.1302 169.4624 59° Northeast 548 631 33,000  Descending FlightAware Transoceanic
Mon 12:55:04 PM 51.8833 169.4667 66° East 540 621 35,000 1,875 Climbing Anchorage Center
Mon 12:56:04 PM 51.9667 169.7000 60° Northeast 550 633 35,000  Level Anchorage Center
Mon 12:57:04 PM 52.0333 169.8833 59° Northeast 540 621 35,000  Level Anchorage Center
Mon 12:58:04 PM 52.1167 170.1167 60° Northeast 550 633 35,000  Level Anchorage Center
Mon 12:59:04 PM 52.1833 170.3500 65° Northeast 550 633 35,000  Level Anchorage Center
Mon 01:00:04 PM 52.2500 170.5333 59° Northeast 550 633 35,000  Level Anchorage Center
Mon 01:01:04 PM 52.3500 170.7667 55° Northeast 550 633 35,000  Level Anchorage Center
Mon 01:02:04 PM 52.4333 170.9333 51° Northeast 550 633 35,000  Level Anchorage Center
Mon 01:03:04 PM 52.5333 171.1500 53° Northeast 540 621 35,000  Level Anchorage Center
Mon 01:04:04 PM 52.6000 171.3333 59° Northeast 540 621 35,000  Level Anchorage Center
Mon 01:05:05 PM 52.7000 171.5500 53° Northeast 540 621 35,000  Level Anchorage Center
Mon 01:06:04 PM 52.7667 171.7167 56° Northeast 530 610 35,000  Level Anchorage Center
Mon 01:07:05 PM 52.8667 171.9333 53° Northeast 530 610 35,000  Level Anchorage Center
Mon 01:08:05 PM 52.9333 172.1167 59° Northeast 550 633 35,000  Level Anchorage Center
Mon 01:09:05 PM 53.0333 172.3333 52° Northeast 530 610 35,000  Level Anchorage Center
Mon 01:10:05 PM 53.1333 172.5500 52° Northeast 530 610 35,000  Level Anchorage Center
Mon 01:11:05 PM 53.2000 172.7333 59° Northeast 540 621 35,000  Level Anchorage Center
Mon 01:12:05 PM 53.3000 172.9667 54° Northeast 530 610 35,000  Level Anchorage Center
Mon 01:13:05 PM 53.3667 173.1333 56° Northeast 530 610 35,000  Level Anchorage Center
Mon 01:14:05 PM 53.4500 173.3667 59° Northeast 530 610 35,000  Level Anchorage Center
Mon 01:15:05 PM 53.5333 173.5500 53° Northeast 530 610 35,000  Level Anchorage Center
Mon 01:16:05 PM 53.6167 173.7667 57° Northeast 530 610 35,000  Level Anchorage Center
Mon 01:17:05 PM 53.6833 173.9500 58° Northeast 530 610 35,000  Level Anchorage Center
Mon 01:18:05 PM 53.7667 174.1833 59° Northeast 520 598 35,000  Level Anchorage Center
Mon 01:19:05 PM 53.8333 174.3500 56° Northeast 520 598 35,000  Level Anchorage Center
Mon 01:20:05 PM 53.9167 174.5833 59° Northeast 520 598 35,000  Level Anchorage Center
Mon 01:21:06 PM 53.9833 174.7667 58° Northeast 520 598 35,000  Level Anchorage Center
Mon 01:22:06 PM 54.0667 175.0000 59° Northeast 530 610 35,000  Level Anchorage Center
Mon 01:23:06 PM 54.1667 175.2333 54° Northeast 530 610 35,000  Level Anchorage Center
Mon 01:24:06 PM 54.2333 175.4167 58° Northeast 540 621 35,000  Level Anchorage Center
Mon 01:25:06 PM 54.3167 175.6667 60° Northeast 540 621 35,000  Level Anchorage Center
Mon 01:26:06 PM 54.3833 175.8500 58° Northeast 540 621 35,000  Level Anchorage Center
Mon 01:27:06 PM 54.4667 176.1000 60° Northeast 540 621 35,000  Level Anchorage Center
Mon 01:28:06 PM 54.5333 176.2833 58° Northeast 530 610 35,000  Level Anchorage Center
Mon 01:29:06 PM 54.6167 176.5333 60° Northeast 530 610 35,000  Level Anchorage Center
Mon 01:30:06 PM 54.6833 176.7167 58° Northeast 520 598 35,000  Level Anchorage Center
Mon 01:31:06 PM 54.7667 176.9667 60° Northeast 530 610 35,000  Level Anchorage Center
Mon 01:32:06 PM 54.8333 177.2000 64° Northeast 540 621 35,000  Level Anchorage Center
Mon 01:33:06 PM 54.9000 177.4000 60° Northeast 530 610 35,000 500 Level Anchorage Center
Mon 01:34:06 PM 54.9833 177.6500 60° Northeast 520 598 36,000 496 Climbing Anchorage Center
Mon 01:35:07 PM 55.0500 177.8333 58° Northeast 520 598 36,000  Level Anchorage Center
Mon 01:36:06 PM 55.1000 178.0167 64° Northeast 500 575 36,000  Level Anchorage Center
Mon 02:09:14 PM 57.0667 -174.8333 67° East 460 529 36,000  Level Anchorage Center
Mon 02:10:00 PM 57.1542 -174.4768 67° East  Level FlightAware Approximate
Mon 02:10:14 PM 57.1167 -174.6167 67° East 460 529 36,000  Level Anchorage Center
Mon 02:11:00 PM 57.2076 -174.2433 67° East  Level FlightAware Approximate
Mon 02:11:14 PM 57.1667 -174.4000 67° East 460 529 36,000  Level Anchorage Center
Mon 02:12:00 PM 57.2606 -174.0090 67° East  Level FlightAware Approximate
Mon 02:12:14 PM 57.2167 -174.1667 68° East 460 529 36,000  Level Anchorage Center
Mon 02:13:00 PM 57.3132 -173.7741 67° East  Level FlightAware Approximate
Mon 02:13:14 PM 57.2667 -173.9500 67° East 470 541 36,000  Level Anchorage Center
Mon 02:14:00 PM 57.3658 -173.5389 67° East  Level FlightAware Approximate
Mon 02:14:15 PM 57.3167 -173.7333 67° East 460 529 36,000  Level Anchorage Center
Mon 02:15:15 PM 57.3667 -173.5000 68° East 460 529 36,000  Level Anchorage Center
Mon 02:16:15 PM 57.4167 -173.2833 67° East 450 518 36,000  Level Anchorage Center
Mon 02:17:15 PM 57.4667 -173.0667 67° East 460 529 36,000  Level Anchorage Center
Mon 02:18:15 PM 57.5000 -172.8500 74° East 440 506 36,000  Level Anchorage Center
Mon 02:19:15 PM 57.5500 -172.6333 67° East 440 506 36,000  Level Anchorage Center
Mon 02:20:15 PM 57.6000 -172.4167 67° East 440 506 36,000  Level Anchorage Center
Mon 02:21:15 PM 57.6500 -172.2000 67° East 450 518 36,000  Level Anchorage Center
Mon 02:22:15 PM 57.6833 -171.9833 74° East 430 495 36,000  Level Anchorage Center
Mon 02:23:15 PM 57.7333 -171.7833 65° Northeast 430 495 36,000  Level Anchorage Center
Mon 02:24:15 PM 57.7833 -171.5667 67° East 430 495 36,000  Level Anchorage Center
Mon 02:25:15 PM 57.8167 -171.3667 73° East 420 483 36,000  Level Anchorage Center
Mon 02:26:15 PM 57.8500 -171.1833 71° East 420 483 36,000  Level Anchorage Center
Mon 02:27:16 PM 57.9000 -170.9833 65° Northeast 410 472 36,000  Level Anchorage Center
Mon 02:28:15 PM 57.9333 -170.7667 74° East 430 495 36,000  Level Anchorage Center
Mon 02:29:16 PM 57.9833 -170.5667 65° Northeast 420 483 36,000  Level Anchorage Center
Mon 02:30:15 PM 58.0333 -170.3500 66° East 430 495 36,000  Level Anchorage Center
Mon 02:31:16 PM 58.0833 -170.1500 65° Northeast 420 483 36,000  Level Anchorage Center
Mon 02:32:16 PM 58.1167 -169.9333 74° East 430 495 36,000  Level Anchorage Center
Mon 02:33:16 PM 58.1667 -169.7167 66° East 440 506 36,000  Level Anchorage Center
Mon 02:34:16 PM 58.2167 -169.5000 66° East 450 518 36,000  Level Anchorage Center
Mon 02:35:16 PM 58.2500 -169.2833 74° East 440 506 36,000  Level Anchorage Center
Mon 02:36:16 PM 58.3000 -169.0667 66° East 440 506 36,000  Level Anchorage Center
Mon 02:37:16 PM 58.3500 -168.8333 68° East 440 506 36,000  Level Anchorage Center
Mon 02:38:16 PM 58.3833 -168.6167 74° East 450 518 36,000  Level Anchorage Center
Mon 02:39:16 PM 58.4333 -168.4000 66° East 440 506 36,000  Level Anchorage Center
Mon 02:40:16 PM 58.4833 -168.1833 66° East 440 506 36,000  Level Anchorage Center
Mon 02:41:17 PM 58.5167 -167.9667 74° East 440 506 36,000  Level Anchorage Center
Mon 02:42:17 PM 58.5667 -167.7333 68° East 430 495 36,000  Level Anchorage Center
Mon 02:43:16 PM 58.6000 -167.5333 72° East 420 483 36,000  Level Anchorage Center
Mon 02:44:17 PM 58.6500 -167.3167 66° East 420 483 36,000  Level Anchorage Center
Mon 02:45:17 PM 58.6833 -167.1000 73° East 420 483 36,000  Level Anchorage Center
Mon 02:46:17 PM 58.7167 -166.8833 73° East 420 483 36,000  Level Anchorage Center
Mon 02:47:17 PM 58.7667 -166.6500 67° East 440 506 36,000  Level Anchorage Center
Mon 02:48:17 PM 58.8000 -166.4167 74° East 430 495 36,000  Level Anchorage Center
Mon 02:49:17 PM 58.8500 -166.2000 66° East 420 483 36,000  Level Anchorage Center
Mon 02:50:17 PM 58.8833 -166.0000 72° East 420 483 36,000  Level Anchorage Center
Mon 02:51:17 PM 58.9167 -165.7833 73° East 420 483 36,000  Level Anchorage Center
Mon 02:52:17 PM 58.9500 -165.5667 73° East 400 460 36,000  Level Anchorage Center
Mon 02:53:17 PM 58.9833 -165.3667 72° East 400 460 36,000  Level Anchorage Center
Mon 02:54:17 PM 59.0167 -165.1667 72° East 400 460 36,000  Level Anchorage Center
Mon 02:55:17 PM 59.0500 -164.9500 73° East 390 449 36,000  Level Anchorage Center
Mon 02:56:17 PM 59.1000 -164.7500 64° Northeast 400 460 36,000  Level Anchorage Center
Mon 02:57:17 PM 59.1333 -164.5500 72° East 400 460 36,000  Level Anchorage Center
Mon 02:58:18 PM 59.1667 -164.3333 73° East 410 472 36,000  Level Anchorage Center
Mon 02:59:44 PM 59.2167 -164.0167 73° East 420 483 36,000  Level Anchorage Center
Mon 03:00:44 PM 59.2500 -163.8000 73° East 410 472 36,000  Level Anchorage Center
Mon 03:01:45 PM 59.2833 -163.5833 73° East 410 472 36,000  Level Anchorage Center
Mon 03:02:45 PM 59.3167 -163.3667 73° East 420 483 36,000  Level Anchorage Center
Mon 03:03:45 PM 59.3500 -163.1500 73° East 410 472 36,000  Level Anchorage Center
Mon 03:04:45 PM 59.3833 -162.9333 73° East 410 472 36,000  Level Anchorage Center
Mon 03:05:46 PM 59.4167 -162.7167 73° East 410 472 36,000  Level Anchorage Center
Mon 03:06:46 PM 59.4500 -162.5000 73° East 410 472 36,000  Level Anchorage Center
Mon 03:07:46 PM 59.5000 -162.2833 65° Northeast 410 472 36,000  Level Anchorage Center
Mon 03:08:47 PM 59.5333 -162.0667 73° East 410 472 36,000  Level Anchorage Center
Mon 03:09:47 PM 59.5667 -161.8500 73° East 420 483 36,000  Level Anchorage Center
Mon 03:10:47 PM 59.6000 -161.6167 74° East 410 472 36,000  Level Anchorage Center
Mon 03:11:48 PM 59.6333 -161.3833 74° East 440 506 36,000  Level Anchorage Center
Mon 03:12:48 PM 59.6667 -161.1500 74° East 440 506 36,000  Level Anchorage Center
Mon 03:13:49 PM 59.7167 -160.9333 65° Northeast 420 483 36,000  Level Anchorage Center
Mon 03:14:49 PM 59.7500 -160.7000 74° East 420 483 36,000  Level Anchorage Center
Mon 03:15:49 PM 59.7833 -160.4833 73° East 430 495 36,000  Level Anchorage Center
Mon 03:16:50 PM 59.8167 -160.2500 74° East 440 506 36,000  Level Anchorage Center
Mon 03:17:50 PM 59.8500 -160.0167 74° East 440 506 36,000  Level Anchorage Center
Mon 03:18:50 PM 59.8833 -159.7667 75° East 440 506 36,000  Level Anchorage Center
Mon 03:19:51 PM 59.9167 -159.5333 74° East 440 506 36,000  Level Anchorage Center
Mon 03:20:51 PM 59.9500 -159.3000 74° East 440 506 36,000  Level Anchorage Center
Mon 03:21:51 PM 59.9833 -159.0500 75° East 450 518 36,000  Level Anchorage Center
Mon 03:22:52 PM 60.0167 -158.8000 75° East 460 529 36,000  Level Anchorage Center
Mon 03:23:52 PM 60.0500 -158.5500 75° East 460 529 36,000  Level Anchorage Center
Mon 03:24:52 PM 60.0833 -158.3000 75° East 440 506 36,000  Level Anchorage Center
Mon 03:30:33 PM 60.2459 -157.0118 75° East 410 472 36,000  Level FlightAware ADS-B
Mon 03:31:17 PM 60.2654 -156.8443 77° East 412 474 36,000  Level FlightAware ADS-B
Mon 03:31:48 PM 60.2785 -156.7321 77° East 416 479 36,000  Level FlightAware ADS-B
Mon 03:32:32 PM 60.2976 -156.5663 77° East 418 481 36,000  Level FlightAware ADS-B
Mon 03:33:03 PM 60.3109 -156.4488 77° East 418 481 36,000  Level FlightAware ADS-B
Mon 03:33:33 PM 60.3235 -156.3351 77° East 419 482 36,000  Level FlightAware ADS-B
Mon 03:34:03 PM 60.3360 -156.2207 78° East 420 483 36,000  Level FlightAware ADS-B
Mon 03:34:47 PM 60.3553 -156.0501 77° East 415 478 36,000  Level FlightAware ADS-B
Mon 03:35:18 PM 60.3678 -155.9374 77° East 414 476 36,000  Level FlightAware ADS-B
Mon 03:36:03 PM 60.3862 -155.7674 78° East 415 478 36,000  Level FlightAware ADS-B
Mon 03:36:33 PM 60.3987 -155.6504 78° East 414 476 36,000  Level FlightAware ADS-B
Mon 03:37:18 PM 60.4163 -155.4834 78° East 416 479 36,000  Level FlightAware ADS-B
Mon 03:37:48 PM 60.4284 -155.3692 78° East 416 479 36,000  Level FlightAware ADS-B
Mon 03:38:33 PM 60.4461 -155.1978 78° East 418 481 36,000  Level FlightAware ADS-B
Mon 03:39:03 PM 60.4579 -155.0829 78° East 418 481 36,000  Level FlightAware ADS-B
Mon 03:39:33 PM 60.4700 -154.9636 78° East 423 487 36,000  Level FlightAware ADS-B
Mon 03:40:04 PM 60.4819 -154.8474 78° East 423 487 36,000 -79 Level FlightAware ADS-B
Mon 03:40:49 PM 60.4999 -154.6727 78° East 429 494 35,900 -480 Descending FlightAware ADS-B
Mon 03:41:19 PM 60.5147 -154.5553 76° East 431 496 35,400 -1,082 Descending FlightAware ADS-B
Mon 03:41:50 PM 60.5315 -154.4310 75° East 430 495 34,800 -1,114 Descending FlightAware ADS-B
Mon 03:42:29 PM 60.5511 -154.2851 75° East 416 479 34,100 -1,111 Descending FlightAware ADS-B
Mon 03:43:11 PM 60.5707 -154.1363 75° East 409 471 33,300 -1,125 Descending FlightAware ADS-B
Mon 03:43:49 PM 60.5898 -153.9876 75° East 410 472 32,600 -1,125 Descending FlightAware ADS-B
Mon 03:44:31 PM 60.6098 -153.8327 75° East 399 459 31,800 -1,040 Descending FlightAware ADS-B
Mon 03:45:04 PM 60.6247 -153.7127 76° East 404 465 31,300 -1,013 Descending FlightAware ADS-B
Mon 03:45:48 PM 60.6453 -153.5479 76° East 396 456 30,500 -1,120 Descending FlightAware ADS-B
Mon 03:46:19 PM 60.6582 -153.4454 75° East 380 437 29,900 -984 Descending FlightAware ADS-B
Mon 03:46:49 PM 60.6714 -153.3390 76° East 376 433 29,500 -1,000 Descending FlightAware ADS-B
Mon 03:47:19 PM 60.6840 -153.2354 76° East 379 436 28,900 -1,452 Descending FlightAware ADS-B
Mon 03:47:51 PM 60.6975 -153.1253 76° East 371 427 28,000 -1,606 Descending FlightAware ADS-B
Mon 03:48:30 PM 60.7134 -152.9965 76° East 352 405 27,000 -1,500 Descending FlightAware ADS-B
Mon 03:49:11 PM 60.7289 -152.8658 76° East 352 405 26,000 -1,519 Descending FlightAware ADS-B
Mon 03:49:49 PM 60.7437 -152.7408 76° East 359 413 25,000 -1,747 Descending FlightAware ADS-B
Mon 03:50:30 PM 60.7598 -152.6046 76° East 348 400 23,700 -1,840 Descending FlightAware ADS-B
Mon 03:51:04 PM 60.7721 -152.5009 76° East 337 388 22,700 -1,747 Descending FlightAware ADS-B
Mon 03:51:49 PM 60.7876 -152.3644 77° East 324 373 21,400 -1,680 Descending FlightAware ADS-B
Mon 03:52:19 PM 60.7977 -152.2761 77° East 315 362 20,600 -1,524 Descending FlightAware ADS-B
Mon 03:52:52 PM 60.8087 -152.1812 77° East 318 366 19,800 -1,667 Descending FlightAware ADS-B
Mon 03:53:31 PM 60.8221 -152.0610 77° East 327 376 18,600 -1,775 Descending FlightAware ADS-B
Mon 03:54:03 PM 60.8330 -151.9651 77° East 321 369 17,700 -1,619 Descending FlightAware ADS-B
Mon 03:54:34 PM 60.8430 -151.8772 77° East 316 364 16,900 -1,565 Descending FlightAware ADS-B
Mon 03:55:12 PM 60.8549 -151.7675 77° East 310 357 15,900 -1,600 Descending FlightAware ADS-B
Mon 03:55:49 PM 60.8665 -151.6629 77° East 304 350 14,900 -1,650 Descending FlightAware ADS-B
Mon 03:56:32 PM 60.8796 -151.5434 77° East 297 342 13,700 -1,600 Descending FlightAware ADS-B
Mon 03:57:04 PM 60.8893 -151.4534 77° East 293 337 12,900 -1,481 Descending FlightAware ADS-B
Mon 03:57:49 PM 60.9052 -151.3359 74° East 295 339 11,800 -1,520 Descending FlightAware ADS-B
Mon 03:58:19 PM 60.9224 -151.2565 66° East 295 339 11,000 -1,238 Descending FlightAware ADS-B
Mon 03:58:52 PM 60.9405 -151.1776 65° Northeast 276 318 10,500 -575 Descending FlightAware ADS-B
Mon 03:59:32 PM 60.9605 -151.0881 65° Northeast 242 278 10,300 -421 Descending FlightAware ADS-B
Mon 03:59:49 PM 60.9711 -151.0533 58° Northeast 243 280 10,100 -750 Descending FlightAware ADS-B
Mon 04:00:12 PM 60.9893 -151.0164 44° Northeast 258 297 9,800 -1,000 Descending FlightAware ADS-B
Mon 04:00:31 PM 61.0071 -150.9831 42° Northeast 261 300 9,400 -1,297 Descending FlightAware ADS-B
Mon 04:00:49 PM 61.0224 -150.9553 41° Northeast 257 296 9,000 -878 Descending FlightAware ADS-B
Mon 04:01:12 PM 61.0426 -150.9187 41° Northeast 245 282 8,800 -977 Descending FlightAware ADS-B
Mon 04:01:32 PM 61.0592 -150.8876 42° Northeast 242 278 8,300 -1,459 Descending FlightAware ADS-B
Mon 04:01:49 PM 61.0731 -150.8612 43° Northeast 241 277 7,900 -1,313 Descending FlightAware ADS-B
Mon 04:02:04 PM 61.0854 -150.8380 42° Northeast 236 272 7,600 -1,116 Descending FlightAware ADS-B
Mon 04:02:32 PM 61.1083 -150.7942 43° Northeast 233 268 7,100 -1,200 Descending FlightAware ADS-B
Mon 04:02:49 PM 61.1194 -150.7731 43° Northeast 232 267 6,700 -1,313 Descending FlightAware ADS-B
Mon 04:03:04 PM 61.1330 -150.7481 42° Northeast 228 262 6,400 -1,000 Descending FlightAware ADS-B
Mon 04:03:19 PM 61.1440 -150.7258 44° Northeast 211 243 6,200 -1,034 Descending FlightAware ADS-B
Mon 04:03:33 PM 61.1499 -150.7039 61° Northeast 200 230 5,900 -1,034 Descending FlightAware ADS-B
Mon 04:03:48 PM 61.1550 -150.6730 71° East 202 232 5,700 -774 Descending FlightAware ADS-B
Mon 04:04:04 PM 61.1596 -150.6456 71° East 200 230 5,500 -581 Descending FlightAware ADS-B
Mon 04:04:19 PM 61.1640 -150.6180 72° East 207 238 5,400 -414 Descending FlightAware ADS-B
Mon 04:04:33 PM 61.1654 -150.5905 84° East 207 238 5,300 -706 Descending FlightAware ADS-B
Mon 04:04:53 PM 61.1660 -150.5509 88° East 207 238 5,000 -600 Descending FlightAware ADS-B
Mon 04:05:13 PM 61.1663 -150.5112 89° East 204 235 4,900 -769 Descending FlightAware ADS-B
Mon 04:05:32 PM 61.1664 -150.4728 90° East 198 228 4,500 -1,167 Descending FlightAware ADS-B
Mon 04:05:49 PM 61.1666 -150.4429 89° East 190 219 4,200 -1,024 Descending FlightAware ADS-B
Mon 04:06:13 PM 61.1668 -150.4009 89° East 173 199 3,800 -977 Descending FlightAware ADS-B
Mon 04:06:32 PM 61.1669 -150.3697 90° East 168 193 3,500 -1,000 Descending FlightAware ADS-B
Mon 04:06:49 PM 61.1671 -150.3429 89° East 164 189 3,200 -938 Descending FlightAware ADS-B
Mon 04:07:04 PM 61.1671 -150.3194 90° East 162 186 3,000 -818 Descending FlightAware ADS-B
Mon 04:07:33 PM 61.1673 -150.2741 90° East 165 190 2,600 -933 Descending FlightAware ADS-B
Mon 04:07:49 PM 61.1673 -150.2536 90° East 168 193 2,300 -900 Descending FlightAware ADS-B
Mon 04:08:13 PM 61.1675 -150.2115 90° East 153 176 2,000 -818 Descending FlightAware ADS-B
Mon 04:08:33 PM 61.1675 -150.1824 90° East 151 174 1,700 -900 Descending FlightAware ADS-B
Mon 04:08:53 PM 61.1676 -150.1531 90° East 155 178 1,400 -750 Descending FlightAware ADS-B
Mon 04:09:13 PM 61.1677 -150.1226 90° East 159 183 1,200 -750 Descending FlightAware ADS-B
Mon 04:09:33 PM 61.1677 -150.0925 90° East 156 180 900 -900 Descending FlightAware ADS-B
Mon 04:09:53 PM 61.1678 -150.0621 90° East 159 183 600 -923 Descending FlightAware ADS-B
Mon 04:10:12 PM 61.1679 -150.0335 90° East 152 175 300 -947 Descending FlightAware ADS-B
Mon 04:10:33 PM 61.1679 -150.0083 90° East 88 101 -857 Descending FlightAware ADS-B

Login

Don't have an account? Register now (free) for customized features, flight alerts, and more!